D/T METAR WX W/DIR W/SPE G/SPE TEMP DEWP
13/07/20 14:20 EGOS 131320Z 24015KT 9999 BKN025 18/14 Q1020 TEMPO 7000 RA SCT020 RMK BLU TEMPO WHT WSW (240°) 17.3mph 18°C 14°C
13/07/20 13:50 EGOS 131250Z 23012KT 9999 BKN025 19/14 Q1020 TEMPO -RA SCT022 RMK BLU TEMPO WHT SW (230°) 13.8mph 19°C 14°C
13/07/20 13:20 EGOS 131220Z 23014KT 9999 BKN025 19/14 Q1021 TEMPO -RA SCT022 RMK BLU TEMPO WHT SW (230°) 16.1mph 19°C 14°C
13/07/20 12:50 EGOS 131150Z 22014KT 9999 SCT020 BKN080 19/16 Q1021 RERA TEMPO FEW022 RMK WHT TEMPO BLU SW (220°) 16.1mph 19°C 16°C
13/07/20 11:50 EGOS 131050Z 23013KT 9999 RA FEW023 BKN060 17/15 Q1022 TEMPO 7000 SCT022 RMK BLU TEMPO WHT RA SW (230°) 15.0mph 17°C 15°C
13/07/20 11:20 EGOS 131020Z 22014KT 9999 -RA SCT023 BKN060 18/14 Q1022 TEMPO NSW SCT025 RMK WHT TEMPO BLU -RA SW (220°) 16.1mph 18°C 14°C
13/07/20 10:50 EGOS 130950Z 22013KT 9999 -RA SCT022 BKN060 17/14 Q1022 TEMPO SCT025 RMK WHT TEMPO BLU -RA SW (220°) 15.0mph 17°C 14°C
13/07/20 10:20 EGOS 130920Z 21011KT 9999 FEW022 BKN060 17/13 Q1022 TEMPO SCT022 RMK BLU TEMPO WHT SSW (210°) 12.7mph 17°C 13°C
13/07/20 09:50 EGOS 130850Z 22008KT 9999 FEW020 BKN100 BKN250 16/12 Q1023 TEMPO SCT022 RMK BLU TEMPO WHT SW (220°) 9.2mph 16°C 12°C
13/07/20 09:20 EGOS 130820Z 21010KT 9999 -RA FEW018 SCT060 BKN090 15/12 Q1023 TEMPO SCT016 RMK BLU TEMPO WHT -RA SSW (210°) 11.5mph 15°C 12°C
13/07/20 08:50 EGOS 130750Z 22010KT 9999 FEW018 SCT090 BKN120 15/11 Q1023 TEMPO 7000 RA SCT018 RMK BLU TEMPO WHT SW (220°) 11.5mph 15°C 11°C
13/07/20 08:20 EGOS 130720Z 22009KT 9999 FEW012 SCT016 BKN070 14/11 Q1023 TEMPO 5000 RADZ SCT012 RMK WHT TEMPO GRN SW (220°) 10.4mph 14°C 11°C
13/07/20 07:50 EGOS 130650Z AUTO 23011KT 9999 -RA BKN070/// 14/11 Q1023 -RA SW (230°) 12.7mph 14°C 11°C
13/07/20 06:50 EGOS 130550Z AUTO 22007KT 9999 -RA FEW060/// BKN150/// 14/10 Q1023 -RA SW (220°) 8.1mph 14°C 10°C
13/07/20 05:50 EGOS 130450Z AUTO 23008KT 9999 FEW017/// BKN060/// BKN130/// 14/10 Q1023 REDZ SW (230°) 9.2mph 14°C 10°C
13/07/20 04:50 EGOS 130350Z AUTO 23009KT 9999 BKN060/// BKN090/// 14/09 Q1023 SW (230°) 10.4mph 14°C 9°C
13/07/20 03:50 EGOS 130250Z AUTO 20008KT 9999 FEW060/// BKN090/// 14/09 Q1024 SSW (200°) 9.2mph 14°C 9°C
13/07/20 02:50 EGOS 130150Z AUTO 21006KT 9999 BKN090/// BKN210/// 14/10 Q1024 SSW (210°) 6.9mph 14°C 10°C
13/07/20 01:50 EGOS 130050Z AUTO 20008KT 9999 BKN080/// 15/10 Q1025 SSW (200°) 9.2mph 15°C 10°C
13/07/20 00:50 EGOS 122350Z AUTO 21005KT 9999 BKN050/// BKN170/// 15/09 Q1025 SSW (210°) 5.8mph 15°C 9°C
12/07/20 23:50 EGOS 122250Z AUTO 23004KT 9999 OVC047/// 15/09 Q1025 SW (230°) 4.6mph 15°C 9°C
12/07/20 22:50 EGOS 122150Z AUTO 26008KT 9999 OVC060/// 16/08 Q1026 W (260°) 9.2mph 16°C 8°C
12/07/20 21:50 EGOS 122050Z AUTO 27011KT 9999 OVC060/// 16/08 Q1026 W (270°) 12.7mph 16°C 8°C
12/07/20 20:50 EGOS 121950Z AUTO 27008KT 9999 BKN060/// SCT090/// 17/10 Q1026 W (270°) 9.2mph 17°C 10°C
12/07/20 19:50 EGOS 121850Z AUTO 28009KT 9999 OVC070/// 18/07 Q1026 W (280°) 10.4mph 18°C 7°C
12/07/20 18:50 EGOS 121750Z AUTO 26008KT 9999 BKN080/// 19/05 Q1026 W (260°) 9.2mph 19°C 5°C
12/07/20 17:50 EGOS 121650Z AUTO 27010KT 9999 SCT080/// 21/07 Q1026 W (270°) 11.5mph 21°C 7°C
12/07/20 16:50 EGOS 121550Z AUTO 24009KT 9999 BKN110/// 21/07 Q1026 RERA WSW (240°) 10.4mph 21°C 7°C
12/07/20 15:50 EGOS 121450Z AUTO 23005KT 9999 FEW120/// 20/07 Q1026 REUP SW (230°) 5.8mph 20°C 7°C
12/07/20 14:50 EGOS 121350Z AUTO 22007KT 9999 FEW050/// 20/07 Q1027 RERA SW (220°) 8.1mph 20°C 7°C
12/07/20 13:50 EGOS 121250Z AUTO 23005KT 9999 NCD 19/07 Q1027 RERA SW (230°) 5.8mph 19°C 7°C
12/07/20 12:50 EGOS 121150Z AUTO 27003KT 9999 NCD 18/08 Q1028 RERA W (270°) 3.5mph 18°C 8°C
12/07/20 11:50 EGOS 121050Z AUTO 23003KT 9999 NCD 17/07 Q1028 RERA SW (230°) 3.5mph 17°C 7°C
12/07/20 10:50 EGOS 120950Z AUTO 19004KT 9999 NCD 17/08 Q1028 REDZ S (190°) 4.6mph 17°C 8°C
12/07/20 09:50 EGOS 120850Z AUTO 16005KT 9999 NCD 15/07 Q1029 REDZ SSE (160°) 5.8mph 15°C 7°C
12/07/20 08:50 EGOS 120750Z AUTO 19001KT 9999 NCD 13/08 Q1029 RERA S (190°) 1.2mph 13°C 8°C
12/07/20 07:50 EGOS 120650Z AUTO 20004KT 9999 NCD 10/08 Q1029 SSW (200°) 4.6mph 10°C 8°C
12/07/20 06:50 EGOS 120550Z AUTO 18001KT 9999 NCD 08/07 Q1029 S (180°) 1.2mph 8°C 7°C
12/07/20 05:50 EGOS 120450Z AUTO 35001KT 9999 NCD 05/04 Q1028 N (350°) 1.2mph 5°C 4°C
12/07/20 04:50 EGOS 120350Z AUTO 09001KT 9999 NCD 05/04 Q1028 E (90°) 1.2mph 5°C 4°C
12/07/20 03:50 EGOS 120250Z AUTO 15002KT 9999 NCD 06/05 Q1028 SSE (150°) 2.3mph 6°C 5°C
12/07/20 02:50 EGOS 120150Z AUTO 33001KT 9999 NCD 06/05 Q1028 NNW (330°) 1.2mph 6°C 5°C
12/07/20 01:50 EGOS 120050Z AUTO 31002KT 9999 NCD 06/05 Q1029 NW (310°) 2.3mph 6°C 5°C
12/07/20 00:50 EGOS 112350Z AUTO 33001KT 9999 NCD 06/05 Q1029 NNW (330°) 1.2mph 6°C 5°C
11/07/20 23:50 EGOS 112250Z AUTO 27003KT 9999 NCD 07/05 Q1029 W (270°) 3.5mph 7°C 5°C
11/07/20 22:50 EGOS 112150Z AUTO 00000KT 9999 NCD 09/05 Q1029 RERA N (0°) 9°C 5°C
11/07/20 21:50 EGOS 112050Z AUTO 32003KT 9999 NCD 11/06 Q1028 NW (320°) 3.5mph 11°C 6°C
11/07/20 20:50 EGOS 111950Z AUTO 33006KT 9999 FEW050/// 14/06 Q1028 NNW (330°) 6.9mph 14°C 6°C
11/07/20 19:50 EGOS 111850Z AUTO 34007KT 9999 OVC047/// 15/07 Q1028 NNW (340°) 8.1mph 15°C 7°C
11/07/20 18:50 EGOS 111750Z AUTO 32008KT 9999 BKN047/// 16/08 Q1028 NW (320°) 9.2mph 16°C 8°C
11/07/20 17:50 EGOS 111650Z AUTO 01008KT 9999 SCT044/// BKN050/// 16/08 Q1027 RERA N (10°) 9.2mph 16°C 8°C
11/07/20 16:50 EGOS 111550Z AUTO 35009KT 9999 SCT032/// BKN047/// 17/10 Q1027 RERA N (350°) 10.4mph 17°C 10°C
11/07/20 15:50 EGOS 111450Z AUTO 35005KT 9999 DZ BKN048/// 17/09 Q1027 DZ N (350°) 5.8mph 17°C 9°C
11/07/20 14:50 EGOS 111350Z AUTO 35005KT 9999 -RADZ FEW042/// BKN050/// 17/08 Q1027 -RA -DZ N (350°) 5.8mph 17°C 8°C
11/07/20 13:50 EGOS 111250Z AUTO 29006KT 9999 BKN050/// 17/08 Q1028 RERA WNW (290°) 6.9mph 17°C 8°C
11/07/20 12:50 EGOS 111150Z AUTO 30007KT 9999 OVC049/// 16/08 Q1028 WNW (300°) 8.1mph 16°C 8°C
11/07/20 11:50 EGOS 111050Z AUTO 32008KT 9999 FEW040/// BKN045/// 16/07 Q1027 NW (320°) 9.2mph 16°C 7°C
11/07/20 10:50 EGOS 110950Z AUTO 30010KT 9999 BKN047/// 15/08 Q1027 WNW (300°) 11.5mph 15°C 8°C
11/07/20 09:50 EGOS 110850Z AUTO 31008KT 9999 BKN050/// 14/09 Q1027 NW (310°) 9.2mph 14°C 9°C
11/07/20 08:50 EGOS 110750Z AUTO 29009KT 9999 SCT050/// 14/09 Q1027 WNW (290°) 10.4mph 14°C 9°C
11/07/20 07:50 EGOS 110650Z AUTO 26007KT 9999 FEW050/// 13/10 Q1026 W (260°) 8.1mph 13°C 10°C
11/07/20 06:50 EGOS 110550Z AUTO 27007KT 9999 SCT050/// 11/09 Q1025 W (270°) 8.1mph 11°C 9°C
11/07/20 05:50 EGOS 110450Z AUTO 27007KT 9999 NCD 09/08 Q1025 W (270°) 8.1mph 9°C 8°C
11/07/20 04:50 EGOS 110350Z AUTO 27007KT 9999 NCD 08/07 Q1025 W (270°) 8.1mph 8°C 7°C
11/07/20 03:50 EGOS 110250Z AUTO 28006KT 9999 NCD 09/07 Q1024 W (280°) 6.9mph 9°C 7°C
11/07/20 02:50 EGOS 110150Z AUTO 29008KT 9999 NCD 10/08 Q1024 WNW (290°) 9.2mph 10°C 8°C
11/07/20 01:50 EGOS 110050Z AUTO 27007KT 9999 SCT049/// 10/08 Q1024 W (270°) 8.1mph 10°C 8°C
11/07/20 00:50 EGOS 102350Z AUTO 27008KT 9999 OVC050/// 12/09 Q1024 W (270°) 9.2mph 12°C 9°C
10/07/20 23:50 EGOS 102250Z AUTO 28007KT 9999 FEW044/// SCT050/// 11/08 Q1024 W (280°) 8.1mph 11°C 8°C
10/07/20 22:50 EGOS 102150Z AUTO 28004KT 9999 BKN050/// 11/08 Q1023 W (280°) 4.6mph 11°C 8°C
10/07/20 21:50 EGOS 102050Z AUTO 32004KT 9999 NCD 12/07 Q1023 NW (320°) 4.6mph 12°C 7°C
10/07/20 20:50 EGOS 101950Z AUTO 30006KT 9999 NCD 14/07 Q1022 WNW (300°) 6.9mph 14°C 7°C
10/07/20 19:50 EGOS 101850Z AUTO 31009KT 9999 NCD 15/06 Q1022 NW (310°) 10.4mph 15°C 6°C
10/07/20 18:50 EGOS 101750Z AUTO 31012KT 9999 NCD 16/07 Q1021 NW (310°) 13.8mph 16°C 7°C
10/07/20 17:50 EGOS 101650Z AUTO 32010KT 9999 NCD 16/08 Q1021 NW (320°) 11.5mph 16°C 8°C
10/07/20 17:24 EGOS 101624Z 32012KT 9999 FEW045 16/07 Q1021 NOSIG RMK BLU BLU NW (320°) 13.8mph 16°C 7°C
10/07/20 16:50 EGOS 101550Z 31013KT 9999 SCT045 16/08 Q1021 NOSIG RMK BLU BLU NW (310°) 15.0mph 16°C 8°C
10/07/20 16:20 EGOS 101520Z 31013KT 9999 SCT045 16/08 Q1020 NOSIG RMK BLU BLU NW (310°) 15.0mph 16°C 8°C
10/07/20 15:50 EGOS 101450Z 31013KT 9999 SCT040 16/08 Q1020 NOSIG RMK BLU BLU NW (310°) 15.0mph 16°C 8°C
10/07/20 15:20 EGOS 101420Z 31012KT 9999 SCT040 16/07 Q1020 NOSIG RMK BLU BLU NW (310°) 13.8mph 16°C 7°C
10/07/20 14:50 EGOS 101350Z 31012KT 9999 SCT035 16/08 Q1020 NOSIG RMK BLU BLU NW (310°) 13.8mph 16°C 8°C
10/07/20 14:20 EGOS 101320Z 30013KT 9999 SCT032 15/08 Q1020 NOSIG RMK BLU BLU WNW (300°) 15.0mph 15°C 8°C
10/07/20 13:50 EGOS 101250Z 32014KT 9999 SCT030 16/08 Q1019 NOSIG RMK BLU BLU NW (320°) 16.1mph 16°C 8°C
10/07/20 13:19 EGOS 101219Z 31014KT 9999 FEW030 SCT050 16/10 Q1019 TEMPO 30015G25KT RMK BLU TEMPO BLU NW (310°) 16.1mph 16°C 10°C
10/07/20 12:50 EGOS 101150Z 30013KT 9999 SCT028 BKN050 15/08 Q1019 TEMPO 30015G25KT RMK BLU TEMPO BLU WNW (300°) 15.0mph 15°C 8°C
10/07/20 11:50 EGOS 101050Z 30011KT 9999 FEW025 SCT050 14/08 Q1019 TEMPO 30015G25KT RMK BLU TEMPO BLU WNW (300°) 12.7mph 14°C 8°C
10/07/20 11:20 EGOS 101020Z 31011KT 9999 FEW024 BKN050 14/09 Q1018 TEMPO 30015G25KT RMK BLU TEMPO BLU NW (310°) 12.7mph 14°C 9°C
10/07/20 10:50 EGOS 100950Z 29011KT 9999 FEW020 BKN050 13/09 Q1018 TEMPO 30015G25KT RMK BLU TEMPO BLU WNW (290°) 12.7mph 13°C 9°C
10/07/20 10:20 EGOS 100920Z 31011KT 9999 FEW018 BKN050 13/08 Q1018 TEMPO 30015G25KT SCT020 RMK BLU TEMPO WHT NW (310°) 12.7mph 13°C 8°C
10/07/20 09:50 EGOS 100850Z 30010KT 9999 FEW016 BKN050 13/09 Q1018 TEMPO SCT018 RMK BLU TEMPO WHT WNW (300°) 11.5mph 13°C 9°C
10/07/20 09:20 EGOS 100820Z 28009KT 9999 FEW015 BKN050 12/09 Q1018 TEMPO SCT018 RMK BLU TEMPO WHT W (280°) 10.4mph 12°C 9°C
10/07/20 08:50 EGOS 100750Z 29008KT 9999 -SHRA FEW018 BKN050 11/09 Q1017 TEMPO SCT020 RMK BLU TEMPO WHT -SHRA WNW (290°) 9.2mph 11°C 9°C
10/07/20 08:20 EGOS 100720Z 27010KT 9999 FEW015 BKN050 12/08 Q1017 TEMPO SCT018 RMK BLU TEMPO WHT W (270°) 11.5mph 12°C 8°C
10/07/20 07:50 EGOS 100650Z AUTO 29008KT 9999 BKN050/// 12/09 Q1017 WNW (290°) 9.2mph 12°C 9°C
10/07/20 06:50 EGOS 100550Z AUTO 26007KT 9999 NCD 10/08 Q1016 W (260°) 8.1mph 10°C 8°C
10/07/20 05:50 EGOS 100450Z AUTO 23006KT 9999 NCD 09/07 Q1016 SW (230°) 6.9mph 9°C 7°C